Time;durP1;ratioP1;P1;durP2;ratioP2;P2;SDS_P1;SDS_P2;PMS_P1;PMS_P2;Temp;Humidity;BMP_temperature;BMP_pressure;BME280_temperature;BME280_humidity;BME280_pressure;Samples;Min_cycle;Max_cycle;Signal;HPM_P1;HPM_P2
2023/02/11 00:00:10;;;;;;;37.53;24.10;;;;;;;0.34;77.86;98666.19;5134641;27;20176;-67
2023/02/11 00:02:35;;;;;;;41.87;24.73;;;;;;;0.36;78.07;98662.56;5151026;27;20171;-68
2023/02/11 00:05:01;;;;;;;40.03;25.00;;;;;;;0.28;78.06;98669.25;5152737;27;20263;-68
2023/02/11 00:07:31;;;;;;;41.33;24.67;;;;;;;0.20;78.60;98667.22;5151931;27;20218;-67
2023/02/11 00:09:57;;;;;;;41.40;24.47;;;;;;;0.23;78.31;98671.31;5135583;27;20262;-67
2023/02/11 00:12:23;;;;;;;40.27;24.20;;;;;;;0.27;78.67;98668.41;5155012;27;20253;-68
2023/02/11 00:14:48;;;;;;;40.93;24.07;;;;;;;0.13;79.30;98670.38;5154030;27;20225;-68
2023/02/11 00:17:14;;;;;;;38.40;23.77;;;;;;;0.04;79.96;98666.75;5137120;27;20174;-68
2023/02/11 00:19:40;;;;;;;42.20;25.80;;;;;;;0.02;80.77;98662.63;5154493;27;20540;-68
2023/02/11 00:22:05;;;;;;;40.07;24.97;;;;;;;-0.13;81.91;98662.84;5135938;27;20186;-68
2023/02/11 00:24:31;;;;;;;38.80;25.10;;;;;;;-0.27;82.18;98662.19;5154366;27;20213;-68
2023/02/11 00:26:57;;;;;;;38.97;24.37;;;;;;;-0.43;83.44;98665.88;5136446;27;20234;-68
2023/02/11 00:29:22;;;;;;;36.73;25.33;;;;;;;-0.45;83.95;98666.94;5152985;27;20172;-68
2023/02/11 00:31:48;;;;;;;41.37;25.17;;;;;;;-0.46;83.97;98668.69;5135681;27;20668;-68
2023/02/11 00:34:13;;;;;;;39.17;25.27;;;;;;;-0.40;84.50;98669.19;5154457;27;20190;-68
2023/02/11 00:36:39;;;;;;;35.80;22.97;;;;;;;-0.62;85.37;98659.63;5154007;27;20186;-68
2023/02/11 00:39:06;;;;;;;37.20;23.40;;;;;;;-0.58;85.88;98651.56;5152455;27;20246;-68
2023/02/11 00:41:31;;;;;;;37.63;23.97;;;;;;;-0.68;85.76;98648.00;5136986;27;20189;-68
2023/02/11 00:44:00;;;;;;;39.60;24.77;;;;;;;-0.70;86.53;98649.03;5152862;27;20174;-68
2023/02/11 00:46:26;;;;;;;41.60;24.53;;;;;;;-0.63;86.07;98645.91;5150639;27;20219;-68
2023/02/11 00:48:56;;;;;;;38.93;24.23;;;;;;;-0.64;86.12;98639.13;5129548;27;20207;-68
2023/02/11 00:51:22;;;;;;;43.60;26.47;;;;;;;-0.68;86.93;98640.28;5150335;27;20175;-68
2023/02/11 00:53:49;;;;;;;45.93;26.63;;;;;;;-0.63;86.73;98637.38;5133543;27;20171;-68
2023/02/11 00:56:14;;;;;;;42.20;25.33;;;;;;;-0.65;87.13;98636.66;5133795;28;20195;-68
2023/02/11 00:58:48;;;;;;;40.13;25.63;;;;;;;-0.71;87.20;98645.63;5133380;27;20643;-68
2023/02/11 01:01:14;;;;;;;41.13;24.87;;;;;;;-0.62;86.94;98639.03;5133507;27;20171;-68
2023/02/11 01:03:39;;;;;;;39.77;24.57;;;;;;;-0.50;85.99;98645.84;5134716;27;20176;-68
2023/02/11 01:06:07;;;;;;;40.53;24.57;;;;;;;-0.58;86.00;98643.84;5133108;27;20199;-68
2023/02/11 01:08:33;;;;;;;41.07;23.50;;;;;;;-0.64;86.34;98641.69;5134599;27;20175;-67
2023/02/11 01:11:04;;;;;;;42.20;24.10;;;;;;;-0.65;86.09;98634.06;5133070;27;20182;-68
2023/02/11 01:13:33;;;;;;;45.80;25.33;;;;;;;-0.61;86.17;98628.59;5150830;27;20205;-68
2023/02/11 01:15:58;;;;;;;37.63;24.40;;;;;;;-0.76;87.06;98636.59;5133617;27;20230;-68
2023/02/11 01:18:25;;;;;;;39.93;24.93;;;;;;;-0.73;87.27;98637.22;5133713;27;20222;-68
2023/02/11 01:20:51;;;;;;;39.97;24.70;;;;;;;-0.55;86.66;98627.31;5115078;28;20240;-68
2023/02/11 01:23:17;;;;;;;39.53;25.50;;;;;;;-0.70;87.02;98620.72;5149315;27;20538;-68
2023/02/11 01:25:43;;;;;;;40.87;26.20;;;;;;;-0.66;87.00;98606.69;5153337;27;20252;-68
2023/02/11 01:28:16;;;;;;;43.37;26.27;;;;;;;-0.71;87.42;98601.88;5148821;27;20172;-67
2023/02/11 01:30:41;;;;;;;45.37;26.23;;;;;;;-0.74;87.53;98596.97;5133110;27;20207;-67
2023/02/11 01:33:07;;;;;;;41.43;25.63;;;;;;;-0.74;87.54;98604.69;5147749;27;20210;-68
2023/02/11 01:35:32;;;;;;;41.73;25.57;;;;;;;-0.76;88.18;98595.41;5153572;27;20209;-67
2023/02/11 01:37:58;;;;;;;44.40;25.13;;;;;;;-0.90;88.38;98599.81;5150428;27;20291;-67
2023/02/11 01:40:23;;;;;;;34.37;23.90;;;;;;;-0.73;87.90;98601.19;5132979;27;20218;-67
2023/02/11 01:42:50;;;;;;;42.07;25.57;;;;;;;-0.73;88.35;98605.50;5139026;27;20262;-67
2023/02/11 01:45:54;;;;;;;42.30;24.90;;;;;;;-0.88;89.15;98604.84;5139749;27;20203;-68
2023/02/11 01:50:51;;;;;;;43.67;25.73;;;;;;;-1.01;89.78;98598.94;5130967;27;20425;-68
2023/02/11 01:58:50;;;;;;;42.00;25.70;;;;;;;-1.05;90.71;98594.94;5141172;27;20645;-68
2023/02/11 02:01:20;;;;;;;44.40;25.33;;;;;;;-1.08;91.34;98590.84;5153631;27;20175;-68
2023/02/11 02:03:48;;;;;;;40.17;25.33;;;;;;;-0.95;90.18;98599.31;5137510;27;20183;-68
2023/02/11 02:06:21;;;;;;;45.80;27.93;;;;;;;-0.99;90.20;98592.75;5133164;27;20199;-68
2023/02/11 02:09:03;;;;;;;44.07;26.47;;;;;;;-1.06;91.30;98590.75;5133088;27;20200;-68
2023/02/11 02:11:29;;;;;;;41.53;26.03;;;;;;;-1.09;91.29;98586.63;5135957;27;20224;-68
2023/02/11 02:13:55;;;;;;;42.73;25.93;;;;;;;-1.02;91.01;98582.69;5152105;27;20191;-67
2023/02/11 02:16:25;;;;;;;41.90;24.83;;;;;;;-1.05;91.37;98579.50;5139452;27;20218;-67
2023/02/11 02:19:10;;;;;;;40.07;25.50;;;;;;;-0.96;90.63;98577.09;5156959;27;20235;-67
2023/02/11 02:21:53;;;;;;;39.27;23.67;;;;;;;-0.95;90.61;98580.50;5156870;27;20223;-67
2023/02/11 02:24:43;;;;;;;39.77;24.23;;;;;;;-0.96;90.64;98579.69;5149761;27;20193;-68
2023/02/11 02:27:46;;;;;;;42.53;24.47;;;;;;;-0.90;90.33;98579.25;5123182;27;20222;-68
2023/02/11 02:30:22;;;;;;;39.63;22.53;;;;;;;-0.86;90.26;98579.81;5137495;27;20194;-68
2023/02/11 02:33:21;;;;;;;39.60;24.20;;;;;;;-0.83;89.64;98571.88;5136120;27;20185;-68
2023/02/11 02:35:55;;;;;;;38.60;23.77;;;;;;;-0.82;89.65;98563.22;5137777;27;20350;-67
2023/02/11 02:38:30;;;;;;;37.13;23.30;;;;;;;-0.78;89.32;98556.91;5122415;27;20168;-67
2023/02/11 02:41:01;;;;;;;37.60;24.33;;;;;;;-0.67;88.53;98558.72;5135102;27;20195;-67
2023/02/11 02:43:28;;;;;;;36.83;23.40;;;;;;;-0.73;88.11;98560.00;5149530;27;20258;-67
2023/02/11 02:45:54;;;;;;;41.07;24.77;;;;;;;-0.65;88.04;98556.84;5139347;27;20276;-68
2023/02/11 02:50:48;;;;;;;34.23;22.60;;;;;;;-0.69;88.33;98560.59;5133606;27;20235;-67
2023/02/11 02:53:35;;;;;;;39.07;23.90;;;;;;;-0.68;87.70;98554.50;5135811;27;20298;-67
2023/02/11 02:56:22;;;;;;;36.23;21.50;;;;;;;-0.64;87.70;98551.59;5135513;27;20195;-68
2023/02/11 02:59:17;;;;;;;37.03;22.33;;;;;;;-0.66;88.13;98538.00;5143283;27;20683;-67
2023/02/11 03:02:18;;;;;;;34.50;21.93;;;;;;;-0.57;87.59;98533.94;5146333;27;20583;-67
2023/02/11 03:04:56;;;;;;;35.33;21.90;;;;;;;-0.51;86.94;98530.91;5075009;27;20238;-67
2023/02/11 03:07:38;;;;;;;35.83;22.87;;;;;;;-0.59;87.24;98535.78;5136380;27;20221;-67
2023/02/11 03:10:11;;;;;;;38.20;23.07;;;;;;;-0.66;87.42;98534.59;5135110;27;20191;-67
2023/02/11 03:12:38;;;;;;;40.10;21.80;;;;;;;-0.64;88.02;98541.28;5135701;27;20502;-67
2023/02/11 03:15:05;;;;;;;34.70;22.03;;;;;;;-0.53;87.59;98532.78;5135646;27;20195;-68
2023/02/11 03:17:33;;;;;;;34.73;22.90;;;;;;;-0.67;88.38;98527.84;5138623;27;20171;-67
2023/02/11 03:20:01;;;;;;;37.03;24.17;;;;;;;-0.74;88.72;98530.03;5155444;27;20190;-67
2023/02/11 03:22:41;;;;;;;32.90;21.37;;;;;;;-0.80;88.93;98527.91;5154838;27;20175;-67
2023/02/11 03:25:08;;;;;;;34.87;22.10;;;;;;;-0.80;89.00;98530.47;5153163;27;20619;-67
2023/02/11 03:27:45;;;;;;;35.50;22.30;;;;;;;-0.85;88.94;98530.00;5136720;27;20191;-67
2023/02/11 03:30:11;;;;;;;31.53;21.93;;;;;;;-0.89;89.49;98529.38;5155548;27;20178;-67
2023/02/11 03:33:04;;;;;;;35.90;22.63;;;;;;;-0.89;89.90;98537.09;5142078;27;20171;-68
2023/02/11 03:35:46;;;;;;;35.37;22.23;;;;;;;-0.88;90.20;98517.34;5151427;27;20198;-67
2023/02/11 03:38:20;;;;;;;37.73;22.40;;;;;;;-0.88;90.00;98520.75;5125967;27;20218;-68
2023/02/11 03:40:46;;;;;;;34.90;22.17;;;;;;;-0.74;90.17;98519.75;5150497;27;20218;-67
2023/02/11 03:43:19;;;;;;;34.93;22.97;;;;;;;-0.57;88.68;98526.22;5148567;27;20386;-68
2023/02/11 03:45:49;;;;;;;32.47;20.47;;;;;;;-0.55;88.35;98532.06;5137255;27;20210;-68
2023/02/11 03:50:49;;;;;;;32.87;20.73;;;;;;;-0.50;88.36;98530.78;5132646;27;20262;-68
2023/02/11 03:53:17;;;;;;;33.13;20.47;;;;;;;-0.43;88.38;98531.16;5134544;27;20647;-67
2023/02/11 03:55:44;;;;;;;33.07;20.57;;;;;;;-0.29;88.09;98528.38;5151969;27;20656;-68
2023/02/11 03:58:10;;;;;;;32.43;20.90;;;;;;;-0.27;88.17;98530.81;5150344;27;20203;-67
2023/02/11 04:00:39;;;;;;;31.47;20.73;;;;;;;-0.35;88.25;98526.25;5134802;27;20269;-67
2023/02/11 04:03:06;;;;;;;32.83;21.70;;;;;;;-0.34;88.02;98520.16;5143192;27;20311;-68
2023/02/11 04:05:32;;;;;;;34.77;21.17;;;;;;;-0.35;88.12;98515.94;5134821;27;20195;-67
2023/02/11 04:07:57;;;;;;;35.47;21.07;;;;;;;-0.31;87.39;98521.69;5134036;27;20280;-70
2023/02/11 04:10:23;;;;;;;33.57;22.37;;;;;;;-0.30;88.10;98525.91;5134876;27;20171;-68
2023/02/11 04:12:49;;;;;;;34.67;21.53;;;;;;;-0.37;88.04;98530.69;5141306;27;20185;-68
2023/02/11 04:15:14;;;;;;;35.63;22.17;;;;;;;-0.37;88.16;98537.59;5135157;27;20207;-68
2023/02/11 04:17:40;;;;;;;31.83;21.33;;;;;;;-0.43;88.53;98546.59;5134244;27;20164;-67
2023/02/11 04:20:06;;;;;;;32.40;21.63;;;;;;;-0.44;88.98;98553.50;5142889;27;20187;-67
2023/02/11 04:22:32;;;;;;;33.87;20.97;;;;;;;-0.47;88.88;98558.88;5150103;27;20236;-68
2023/02/11 04:24:57;;;;;;;33.90;21.03;;;;;;;-0.40;88.55;98561.00;5150259;27;20266;-68
2023/02/11 04:27:23;;;;;;;37.30;23.47;;;;;;;-0.29;88.85;98563.59;5154203;27;20205;-68
2023/02/11 04:29:48;;;;;;;38.53;24.23;;;;;;;-0.42;89.81;98567.09;5148312;27;20236;-68
2023/02/11 04:32:13;;;;;;;37.27;23.67;;;;;;;-0.48;90.74;98559.81;5133697;27;20168;-68
2023/02/11 04:34:39;;;;;;;37.87;23.83;;;;;;;-0.71;92.29;98549.56;5147256;27;20616;-68
2023/02/11 04:37:05;;;;;;;37.20;23.80;;;;;;;-0.77;92.38;98550.00;5154333;27;20185;-68
2023/02/11 04:39:30;;;;;;;37.13;23.90;;;;;;;-0.79;92.58;98557.88;5137401;27;20174;-68
2023/02/11 04:41:56;;;;;;;39.77;23.80;;;;;;;-0.82;93.13;98549.53;5141869;27;20194;-67
2023/02/11 04:44:21;;;;;;;35.70;23.73;;;;;;;-0.78;93.36;98541.47;5141204;27;20207;-68
2023/02/11 04:46:47;;;;;;;34.57;23.70;;;;;;;-0.76;93.37;98544.75;5133648;27;20294;-68
2023/02/11 04:49:14;;;;;;;35.67;23.20;;;;;;;-0.62;92.65;98543.75;5138979;27;20226;-68
2023/02/11 04:51:40;;;;;;;38.50;25.20;;;;;;;-0.56;92.56;98546.69;5150892;27;20177;-67
2023/02/11 04:54:06;;;;;;;33.60;23.47;;;;;;;-0.57;92.39;98544.25;5119927;28;20195;-68
2023/02/11 04:56:31;;;;;;;37.10;23.43;;;;;;;-0.68;92.99;98549.34;5134460;27;20244;-67
2023/02/11 04:58:56;;;;;;;38.87;23.90;;;;;;;-0.86;95.43;98554.91;5147926;27;20170;-67
2023/02/11 05:01:22;;;;;;;41.83;25.90;;;;;;;-0.77;95.48;98547.44;5153988;27;20171;-68
2023/02/11 05:04:06;;;;;;;44.47;27.37;;;;;;;-0.88;97.18;98540.50;5146631;27;20262;-67
2023/02/11 05:06:31;;;;;;;42.03;26.80;;;;;;;-1.15;99.16;98539.94;5146452;27;20198;-68
2023/02/11 05:08:57;;;;;;;38.93;25.20;;;;;;;-1.08;98.92;98538.56;5136879;27;20628;-67
2023/02/11 05:11:24;;;;;;;40.20;26.37;;;;;;;-0.95;97.95;98540.13;5133103;27;20227;-67
2023/02/11 05:13:50;;;;;;;42.47;25.60;;;;;;;-0.87;97.71;98531.84;5140431;27;20604;-68
2023/02/11 05:16:17;;;;;;;38.67;25.57;;;;;;;-1.05;98.65;98528.84;5142895;27;20561;-68
2023/02/11 05:18:44;;;;;;;34.27;23.83;;;;;;;-0.96;98.61;98522.25;5147900;27;20190;-68
2023/02/11 05:21:13;;;;;;;37.23;24.37;;;;;;;-1.01;98.43;98516.63;5153573;27;20174;-68
2023/02/11 05:23:39;;;;;;;39.27;24.50;;;;;;;-0.88;97.93;98500.16;5153874;27;20171;-68
2023/02/11 05:26:05;;;;;;;39.03;24.50;;;;;;;-0.68;95.28;98498.69;5144641;27;20211;-68
2023/02/11 05:28:31;;;;;;;34.40;22.67;;;;;;;-0.69;94.97;98484.19;5114976;28;20185;-68
2023/02/11 05:30:56;;;;;;;33.73;22.43;;;;;;;-0.73;95.16;98481.94;5151296;27;20225;-69
2023/02/11 05:33:23;;;;;;;33.97;23.03;;;;;;;-0.62;94.19;98479.41;5135271;27;20182;-68
2023/02/11 05:35:48;;;;;;;34.47;23.27;;;;;;;-0.71;94.79;98468.00;5128840;28;20207;-68
2023/02/11 05:38:14;;;;;;;36.83;22.20;;;;;;;-0.80;95.46;98480.75;5133571;27;20235;-69
2023/02/11 05:40:39;;;;;;;36.27;22.07;;;;;;;-0.65;94.82;98485.59;5141799;27;20206;-68
2023/02/11 05:43:06;;;;;;;33.03;22.23;;;;;;;-0.60;94.29;98478.31;5152045;27;20178;-68
2023/02/11 05:45:32;;;;;;;35.70;23.03;;;;;;;-0.82;95.38;98475.72;5141232;27;20199;-68
2023/02/11 05:47:57;;;;;;;33.27;23.20;;;;;;;-0.62;94.55;98476.81;5139277;27;20206;-68
2023/02/11 05:50:23;;;;;;;33.13;23.47;;;;;;;-0.67;94.98;98478.91;5135508;27;20227;-69
2023/02/11 05:52:48;;;;;;;31.93;21.77;;;;;;;-0.65;95.29;98489.91;5142778;27;20186;-69
2023/02/11 05:55:14;;;;;;;37.57;21.67;;;;;;;-0.59;95.35;98481.72;5159330;27;20278;-68
2023/02/11 05:57:39;;;;;;;32.87;23.17;;;;;;;-0.48;94.84;98477.41;5158511;27;20217;-68
2023/02/11 06:00:05;;;;;;;32.77;21.83;;;;;;;-0.48;95.40;98481.75;5142536;27;20171;-69
2023/02/11 06:02:30;;;;;;;35.93;21.83;;;;;;;-0.49;95.05;98469.78;5145013;27;20170;-67
2023/02/11 06:04:56;;;;;;;32.50;20.80;;;;;;;-0.51;95.63;98479.41;5129997;27;20740;-68
2023/02/11 06:07:21;;;;;;;33.47;22.27;;;;;;;-0.41;96.02;98482.94;5137030;27;20202;-68
2023/02/11 06:09:47;;;;;;;31.83;21.17;;;;;;;-0.34;95.62;98476.38;5136078;27;20183;-68
2023/02/11 06:12:12;;;;;;;30.47;21.50;;;;;;;-0.43;95.47;98480.47;5139055;27;20179;-68
2023/02/11 06:14:58;;;;;;;30.03;22.63;;;;;;;-0.21;95.17;98489.94;5147627;27;20203;-68
2023/02/11 06:17:24;;;;;;;34.23;22.60;;;;;;;-0.31;94.86;98501.91;5136542;27;20611;-68
2023/02/11 06:19:49;;;;;;;32.13;23.23;;;;;;;-0.31;94.97;98498.50;5119379;27;20183;-67
2023/02/11 06:22:15;;;;;;;27.93;21.30;;;;;;;-0.27;95.26;98505.03;5141563;27;20205;-67
2023/02/11 06:24:41;;;;;;;29.57;20.70;;;;;;;-0.34;95.24;98507.28;5156765;27;20201;-67
2023/02/11 06:27:07;;;;;;;29.17;21.73;;;;;;;-0.19;95.39;98500.97;5140898;27;20247;-67
2023/02/11 06:29:32;;;;;;;35.17;22.23;;;;;;;-0.16;95.17;98502.47;5138000;27;20202;-67
2023/02/11 06:31:57;;;;;;;30.93;21.10;;;;;;;-0.19;94.80;98507.88;5157244;27;20194;-67
2023/02/11 06:34:23;;;;;;;28.80;21.80;;;;;;;-0.17;95.49;98490.56;5157358;27;20167;-67
2023/02/11 06:36:48;;;;;;;31.23;21.47;;;;;;;-0.08;95.12;98502.72;5156710;27;20179;-67
2023/02/11 06:39:14;;;;;;;30.60;21.17;;;;;;;-0.05;95.22;98497.31;5154408;27;20552;-67
2023/02/11 06:41:39;;;;;;;30.67;20.53;;;;;;;0.03;93.85;98492.41;5154699;27;20189;-68
2023/02/11 06:44:05;;;;;;;29.83;20.10;;;;;;;0.03;94.23;98509.63;5152985;27;20171;-68
2023/02/11 06:46:31;;;;;;;24.57;18.90;;;;;;;0.00;94.11;98506.34;5129425;27;20222;-67
2023/02/11 06:48:57;;;;;;;28.03;19.80;;;;;;;0.04;93.99;98504.38;5143833;27;20376;-68
2023/02/11 06:51:23;;;;;;;26.63;18.60;;;;;;;-0.01;94.16;98504.72;5117607;27;20190;-67
2023/02/11 06:53:54;;;;;;;28.27;20.50;;;;;;;-0.03;94.56;98511.75;5130125;27;20175;-67
2023/02/11 06:56:23;;;;;;;27.50;20.10;;;;;;;0.16;93.09;98512.91;5154364;27;20194;-67
2023/02/11 06:58:54;;;;;;;30.13;20.50;;;;;;;0.03;93.63;98518.19;5145624;27;20176;-67
2023/02/11 07:01:21;;;;;;;29.87;21.13;;;;;;;0.09;93.60;98520.28;5136893;27;20175;-67
2023/02/11 07:03:47;;;;;;;28.83;20.47;;;;;;;0.10;93.95;98513.38;5135551;27;20264;-67
2023/02/11 07:06:19;;;;;;;28.93;20.80;;;;;;;0.15;93.59;98519.00;5127853;27;20204;-68
2023/02/11 07:08:45;;;;;;;27.23;19.73;;;;;;;0.13;93.76;98524.25;5145322;27;20171;-67
2023/02/11 07:11:29;;;;;;;30.17;21.93;;;;;;;0.17;93.69;98517.91;5135803;27;20747;-67
2023/02/11 07:13:59;;;;;;;31.73;21.10;;;;;;;0.14;94.42;98523.31;5135968;27;20175;-67
2023/02/11 07:16:25;;;;;;;30.73;20.57;;;;;;;0.06;94.98;98520.50;5135307;27;20652;-66
2023/02/11 07:18:50;;;;;;;34.20;20.87;;;;;;;0.05;95.47;98518.91;5139206;27;20190;-64
2023/02/11 07:21:19;;;;;;;30.47;19.80;;;;;;;0.30;94.78;98513.47;5145959;27;20170;-67
2023/02/11 07:23:45;;;;;;;31.70;20.20;;;;;;;0.35;94.81;98513.09;5156195;27;20604;-66
2023/02/11 07:26:14;;;;;;;30.77;21.50;;;;;;;0.39;95.58;98512.72;5155414;27;20294;-66
2023/02/11 07:28:40;;;;;;;30.77;22.13;;;;;;;0.55;94.49;98514.94;5147858;27;20175;-66
2023/02/11 07:31:30;;;;;;;67.53;47.10;;;;;;;0.72;92.08;98505.88;5145004;27;20211;-67
2023/02/11 07:33:58;;;;;;;31.53;20.33;;;;;;;0.62;92.22;98504.94;5155838;27;20255;-66
2023/02/11 07:36:30;;;;;;;31.07;21.93;;;;;;;0.84;92.10;98510.03;5153390;27;20226;-66
2023/02/11 07:38:56;;;;;;;27.17;20.37;;;;;;;0.77;91.10;98514.88;5155774;27;20177;-66
2023/02/11 07:41:24;;;;;;;30.53;20.43;;;;;;;0.81;91.36;98516.28;5138819;27;20639;-66
2023/02/11 07:43:49;;;;;;;25.03;18.67;;;;;;;0.92;90.95;98519.75;5125327;27;20236;-67
2023/02/11 07:46:21;;;;;;;25.97;19.83;;;;;;;1.21;90.75;98525.97;5116417;27;20200;-66
2023/02/11 07:48:47;;;;;;;26.57;19.67;;;;;;;1.33;88.70;98531.91;5150244;27;20725;-67
2023/02/11 07:51:14;;;;;;;28.10;20.30;;;;;;;1.42;88.29;98528.56;5135477;27;20175;-67
2023/02/11 07:53:40;;;;;;;29.70;23.30;;;;;;;1.56;87.19;98528.25;5136238;27;20168;-67
2023/02/11 07:56:07;;;;;;;26.20;18.33;;;;;;;1.70;87.16;98519.34;5126383;27;20569;-68
2023/02/11 07:58:33;;;;;;;27.07;20.10;;;;;;;1.63;87.61;98514.69;5118154;27;20179;-67
2023/02/11 08:01:04;;;;;;;24.93;19.13;;;;;;;1.54;87.66;98501.72;5114361;27;20508;-67
2023/02/11 08:03:29;;;;;;;25.50;19.70;;;;;;;1.27;88.99;98504.00;5139160;27;20167;-66
2023/02/11 08:05:55;;;;;;;27.30;19.80;;;;;;;1.43;88.74;98505.19;5154938;27;20225;-66
2023/02/11 08:08:20;;;;;;;26.43;20.07;;;;;;;1.61;87.67;98495.91;5135746;27;20209;-66
2023/02/11 08:10:46;;;;;;;28.77;19.10;;;;;;;1.59;87.78;98504.72;5115900;27;20182;-66
2023/02/11 08:13:11;;;;;;;24.73;18.03;;;;;;;1.87;85.54;98498.88;5137299;27;20179;-67
2023/02/11 08:15:37;;;;;;;26.90;19.63;;;;;;;1.82;86.88;98498.44;5151130;27;20198;-66
2023/02/11 08:18:02;;;;;;;26.23;18.47;;;;;;;2.16;84.91;98499.00;5149608;27;20179;-66
2023/02/11 08:20:28;;;;;;;26.90;18.77;;;;;;;2.09;85.14;98492.69;5154566;27;20216;-66
2023/02/11 08:22:54;;;;;;;27.50;19.47;;;;;;;2.28;83.94;98500.53;5141741;27;20541;-66
2023/02/11 08:25:19;;;;;;;28.43;18.67;;;;;;;2.42;83.32;98496.75;5134112;27;20210;-66
2023/02/11 08:27:45;;;;;;;26.03;18.20;;;;;;;2.26;84.27;98510.19;5134349;27;20203;-65
2023/02/11 08:30:11;;;;;;;23.87;18.90;;;;;;;2.40;84.19;98517.56;5134503;27;20183;-66
2023/02/11 08:32:38;;;;;;;25.17;18.50;;;;;;;2.38;83.89;98519.47;5144529;27;20201;-65
2023/02/11 08:35:06;;;;;;;22.63;17.27;;;;;;;2.37;84.40;98519.59;5154310;27;20633;-64
2023/02/11 08:37:32;;;;;;;25.80;18.23;;;;;;;2.20;85.06;98525.41;5153298;27;20646;-64
2023/02/11 08:39:58;;;;;;;24.53;17.83;;;;;;;2.08;85.81;98525.50;5152347;27;20186;-64
2023/02/11 08:42:24;;;;;;;26.33;19.00;;;;;;;2.31;84.87;98520.94;5143938;27;20553;-63
2023/02/11 08:44:49;;;;;;;25.90;19.90;;;;;;;2.58;83.92;98522.91;5144497;27;20194;-63
2023/02/11 08:47:14;;;;;;;30.17;20.40;;;;;;;2.44;85.68;98518.13;5142655;27;20577;-64
2023/02/11 08:49:41;;;;;;;27.27;20.63;;;;;;;2.53;86.08;98516.50;5134556;27;20345;-65
2023/02/11 08:52:07;;;;;;;27.87;20.53;;;;;;;2.58;85.97;98516.91;5154072;27;20174;-64
2023/02/11 08:54:33;;;;;;;27.80;20.37;;;;;;;2.60;85.20;98517.63;5137946;27;20206;-64
2023/02/11 08:56:59;;;;;;;28.13;20.20;;;;;;;2.75;84.82;98519.69;5150828;27;20178;-65
2023/02/11 08:59:24;;;;;;;28.97;20.43;;;;;;;2.86;84.09;98508.38;5153190;27;20170;-64
2023/02/11 09:01:50;;;;;;;26.03;19.87;;;;;;;2.81;84.93;98506.19;5153667;27;20535;-64
2023/02/11 09:04:16;;;;;;;32.63;22.13;;;;;;;2.74;85.32;98510.25;5137796;27;20216;-64
2023/02/11 09:06:41;;;;;;;36.33;24.13;;;;;;;2.75;86.13;98509.31;5134860;27;20225;-64
2023/02/11 09:09:12;;;;;;;38.70;23.30;;;;;;;2.85;86.20;98511.91;5133956;28;20705;-61
2023/02/11 09:11:39;;;;;;;34.57;25.30;;;;;;;2.87;87.05;98516.00;5152876;27;20178;-63
2023/02/11 09:14:05;;;;;;;36.13;24.47;;;;;;;2.99;86.98;98521.06;5150351;27;20612;-65
2023/02/11 09:16:34;;;;;;;36.30;25.03;;;;;;;2.87;86.85;98521.19;5150666;27;20232;-62
2023/02/11 09:19:02;;;;;;;37.70;26.80;;;;;;;4.25;97.04;98530.19;5134928;27;20265;-62
2023/02/11 09:21:28;;;;;;;31.80;23.80;;;;;;;3.85;86.22;98520.09;5138332;27;20186;-62
2023/02/11 09:23:54;;;;;;;33.60;23.43;;;;;;;3.05;86.73;98517.94;5152450;27;20227;-60
2023/02/11 09:26:25;;;;;;;31.57;24.07;;;;;;;3.03;86.60;98518.06;5156353;27;20202;-61
2023/02/11 09:28:50;;;;;;;38.50;23.73;;;;;;;3.18;86.82;98513.28;5137809;27;20171;-60
2023/02/11 09:31:21;;;;;;;35.10;24.80;;;;;;;3.22;86.77;98504.28;5150313;27;20186;-61
2023/02/11 09:33:49;;;;;;;33.23;24.37;;;;;;;3.27;85.44;98502.91;5144763;27;20199;-60
2023/02/11 09:36:18;;;;;;;36.73;24.97;;;;;;;3.31;85.88;98498.28;5138005;27;20201;-61
2023/02/11 09:38:44;;;;;;;33.73;25.43;;;;;;;3.35;85.26;98505.63;5158092;27;20178;-61
2023/02/11 09:41:22;;;;;;;30.87;23.60;;;;;;;3.31;85.80;98498.28;5147029;27;20198;-62
2023/02/11 09:43:58;;;;;;;35.40;21.67;;;;;;;3.16;84.71;98491.88;5153981;27;20174;-59
2023/02/11 09:46:26;;;;;;;29.23;20.87;;;;;;;3.33;84.98;98494.59;5140402;27;20285;-57
2023/02/11 09:48:53;;;;;;;30.53;20.97;;;;;;;3.36;84.88;98498.66;5151494;27;20243;-61
2023/02/11 09:51:41;;;;;;;31.83;20.97;;;;;;;3.37;84.64;98502.06;5118753;27;20274;-59
2023/02/11 09:54:20;;;;;;;31.07;20.47;;;;;;;3.41;84.33;98506.03;5150989;27;20586;-61
2023/02/11 09:56:46;;;;;;;27.00;19.40;;;;;;;3.68;83.07;98506.91;5157702;27;20163;-61
2023/02/11 09:59:16;;;;;;;26.00;18.93;;;;;;;3.70;82.25;98509.38;5157493;27;20186;-61
2023/02/11 10:02:08;;;;;;;26.30;20.60;;;;;;;3.95;81.30;98507.94;5145540;27;20247;-61
2023/02/11 10:05:04;;;;;;;27.67;18.83;;;;;;;4.07;81.24;98506.78;5155252;27;20710;-61
2023/02/11 10:08:11;;;;;;;29.23;21.23;;;;;;;4.25;80.59;98518.03;5154838;27;20194;-61
2023/02/11 10:10:57;;;;;;;29.47;19.63;;;;;;;4.48;79.78;98518.47;5135723;27;20183;-61
2023/02/11 10:13:55;;;;;;;25.97;19.07;;;;;;;4.54;79.43;98528.28;5145011;27;20178;-58
2023/02/11 10:16:42;;;;;;;25.73;18.73;;;;;;;4.47;78.60;98520.25;5150877;27;20272;-61
2023/02/11 10:19:48;;;;;;;24.40;17.67;;;;;;;4.43;79.18;98523.28;5134920;27;20591;-64
2023/02/11 10:22:30;;;;;;;24.57;17.13;;;;;;;4.46;78.73;98516.00;5140841;27;20179;-63
2023/02/11 10:24:59;;;;;;;23.33;16.40;;;;;;;4.65;77.95;98522.88;5120173;27;20226;-63
2023/02/11 10:27:33;;;;;;;24.13;18.43;;;;;;;4.64;78.31;98518.66;5139574;27;20371;-60
2023/02/11 10:30:18;;;;;;;22.13;18.87;;;;;;;4.89;76.96;98519.72;5153002;27;20189;-56
2023/02/11 10:33:14;;;;;;;30.40;20.37;;;;;;;4.93;77.13;98521.88;5133486;27;20266;-61
2023/02/11 10:35:41;;;;;;;25.53;20.53;;;;;;;4.73;77.16;98515.19;5156322;27;20575;-60
2023/02/11 10:38:08;;;;;;;25.13;22.40;;;;;;;5.02;76.71;98523.56;5155330;27;20622;-60
2023/02/11 10:40:33;;;;;;;26.30;23.50;;;;;;;5.02;76.64;98522.75;5121353;27;20671;-61
2023/02/11 10:43:05;;;;;;;27.73;24.73;;;;;;;5.23;76.77;98519.88;5139420;27;20187;-61
2023/02/11 10:45:47;;;;;;;27.23;24.37;;;;;;;5.24;76.70;98513.72;5138939;27;20201;-61
2023/02/11 10:50:47;;;;;;;23.47;20.97;;;;;;;5.15;76.73;98507.59;5133764;27;20223;-62
2023/02/11 10:53:19;;;;;;;24.17;20.93;;;;;;;4.99;77.61;98497.91;5132820;27;20196;-62
2023/02/11 10:55:56;;;;;;;23.50;21.00;;;;;;;5.30;76.58;98500.91;5135360;27;20198;-61
2023/02/11 10:58:30;;;;;;;22.60;17.50;;;;;;;5.51;75.18;98494.56;5133878;27;20163;-62
2023/02/11 11:00:58;;;;;;;22.63;17.63;;;;;;;5.64;74.75;98489.75;5133231;27;20166;-62
2023/02/11 11:03:54;;;;;;;19.27;16.60;;;;;;;5.64;74.42;98484.56;5135808;27;20187;-64
2023/02/11 11:06:33;;;;;;;24.23;17.83;;;;;;;5.64;74.48;98474.16;5113808;27;20218;-60
2023/02/11 11:08:59;;;;;;;22.00;15.27;;;;;;;5.74;74.36;98473.06;5135728;27;20168;-60
2023/02/11 11:11:26;;;;;;;16.63;14.93;;;;;;;5.77;73.84;98471.97;5134744;27;20202;-59
2023/02/11 11:13:51;;;;;;;19.47;15.87;;;;;;;5.83;73.59;98466.97;5135208;27;20167;-60
2023/02/11 11:16:25;;;;;;;17.27;15.33;;;;;;;5.89;72.97;98469.94;5147229;27;20635;-61
2023/02/11 11:19:07;;;;;;;19.00;17.10;;;;;;;5.39;73.43;98475.78;5145140;27;20183;-60
2023/02/11 11:21:45;;;;;;;18.83;16.47;;;;;;;5.37;74.30;98470.75;5133628;27;20164;-61
2023/02/11 11:24:18;;;;;;;18.43;13.67;;;;;;;5.67;73.88;98479.88;5148001;27;20167;-61
2023/02/11 11:26:49;;;;;;;27.20;23.87;;;;;;;5.60;72.84;98478.84;5136401;27;20226;-62
2023/02/11 11:29:23;;;;;;;28.33;25.50;;;;;;;5.43;73.70;98474.50;5136337;27;20172;-61
2023/02/11 11:32:03;;;;;;;27.00;24.10;;;;;;;5.40;73.68;98472.22;5135791;27;20213;-61
2023/02/11 11:34:41;;;;;;;28.87;25.07;;;;;;;5.42;73.83;98478.91;5154042;27;20234;-60
2023/02/11 11:37:21;;;;;;;43.97;39.53;;;;;;;5.32;74.42;98478.19;5153793;27;20190;-60
2023/02/11 11:40:07;;;;;;;29.10;24.77;;;;;;;5.25;75.13;98468.53;5145206;27;20251;-61
2023/02/11 11:42:34;;;;;;;27.67;20.27;;;;;;;5.39;73.72;98471.41;5138176;27;20178;-61
2023/02/11 11:45:07;;;;;;;25.93;19.83;;;;;;;5.43;73.81;98464.94;5141642;27;20278;-60
2023/02/11 11:47:39;;;;;;;24.93;19.43;;;;;;;5.49;73.29;98465.28;5155094;27;20237;-61
2023/02/11 11:50:17;;;;;;;21.83;17.67;;;;;;;5.39;73.53;98463.63;5138051;27;20644;-62